createdAt,value
2022-08-28T00:00:41.688Z,20.91
2022-08-28T00:03:10.910Z,21.04
2022-08-28T00:05:39.980Z,21.08
2022-08-28T00:08:08.750Z,21.02
2022-08-28T00:10:39.219Z,20.96
2022-08-28T00:13:08.040Z,20.93
2022-08-28T00:15:39.025Z,20.95
2022-08-28T00:18:07.572Z,21.03
2022-08-28T00:20:36.696Z,21.07
2022-08-28T00:23:05.872Z,21.13
2022-08-28T00:25:34.939Z,21.06
2022-08-28T00:28:08.493Z,21.04
2022-08-28T00:30:41.829Z,21.07
2022-08-28T00:33:12.786Z,21.09
2022-08-28T00:35:41.608Z,21.09
2022-08-28T00:38:10.267Z,21.16
2022-08-28T00:40:38.666Z,21.22
2022-08-28T00:43:09.411Z,21.22
2022-08-28T00:45:40.253Z,21.32
2022-08-28T00:48:08.516Z,21.26
2022-08-28T00:50:51.072Z,21.23
2022-08-28T00:53:19.670Z,21.29
2022-08-28T00:55:47.728Z,21.15
2022-08-28T00:58:16.127Z,21.06
2022-08-28T01:00:45.241Z,20.90
2022-08-28T01:03:13.060Z,20.85
2022-08-28T01:05:43.537Z,21.06
2022-08-28T01:08:11.361Z,21.12
2022-08-28T01:10:41.604Z,21.22
2022-08-28T01:13:09.437Z,21.32
2022-08-28T01:15:38.317Z,21.24
2022-08-28T01:18:10.203Z,21.04
2022-08-28T01:20:44.859Z,20.89
2022-08-28T01:23:21.823Z,20.83
2022-08-28T01:25:52.482Z,20.80
2022-08-28T01:28:20.330Z,20.78
2022-08-28T01:30:49.849Z,20.79
2022-08-28T01:33:19.361Z,20.84
2022-08-28T01:35:55.559Z,20.80
2022-08-28T01:38:27.030Z,20.81
2022-08-28T01:40:59.470Z,20.85
2022-08-28T01:43:28.818Z,20.85
2022-08-28T01:46:02.204Z,20.87
2022-08-28T01:48:32.014Z,20.85
2022-08-28T01:51:00.182Z,20.93
2022-08-28T01:53:32.678Z,20.80
2022-08-28T01:56:04.503Z,20.64
2022-08-28T01:58:37.899Z,20.44
2022-08-28T02:01:10.619Z,20.52
2022-08-28T02:03:38.411Z,20.60
2022-08-28T02:06:07.122Z,20.67
2022-08-28T02:08:34.923Z,20.69
2022-08-28T02:11:06.200Z,20.72
2022-08-28T02:13:35.034Z,20.71
2022-08-28T02:16:03.866Z,20.78
2022-08-28T02:18:31.623Z,20.87
2022-08-28T02:20:59.394Z,20.93
2022-08-28T02:23:27.266Z,20.97
2022-08-28T02:25:54.982Z,20.97
2022-08-28T02:28:24.043Z,20.95
2022-08-28T02:30:51.797Z,21.05
2022-08-28T02:33:19.683Z,20.97
2022-08-28T02:35:47.335Z,21.03
2022-08-28T02:38:15.295Z,20.94
2022-08-28T02:40:43.088Z,20.93
2022-08-28T02:43:10.912Z,20.83
2022-08-28T02:45:39.988Z,20.91
2022-08-28T02:48:14.652Z,21.04
2022-08-28T02:50:45.198Z,21.14
2022-08-28T02:53:13.322Z,20.99
2022-08-28T02:55:41.345Z,21.11
2022-08-28T02:58:09.632Z,21.24
2022-08-28T03:00:37.657Z,21.21
2022-08-28T03:03:06.807Z,21.10
2022-08-28T03:05:34.561Z,21.13
2022-08-28T03:08:02.259Z,21.14
2022-08-28T03:10:29.936Z,21.20
2022-08-28T03:12:57.632Z,21.09
2022-08-28T03:15:25.418Z,20.98
2022-08-28T03:17:53.093Z,20.93
2022-08-28T03:20:22.177Z,20.95
2022-08-28T03:23:07.512Z,20.84
2022-08-28T03:25:35.576Z,20.79
2022-08-28T03:28:03.533Z,20.74
2022-08-28T03:30:31.272Z,20.75
2022-08-28T03:32:59.041Z,20.56
2022-08-28T03:35:28.328Z,20.51
2022-08-28T03:37:56.062Z,20.64
2022-08-28T03:40:23.778Z,20.68
2022-08-28T03:42:53.348Z,20.55
2022-08-28T03:45:22.082Z,20.46
2022-08-28T03:47:50.858Z,20.32
2022-08-28T03:50:19.869Z,20.30
2022-08-28T03:52:49.186Z,20.41
2022-08-28T03:55:18.798Z,20.58
2022-08-28T03:57:46.801Z,20.96
2022-08-28T04:00:16.408Z,21.05
2022-08-28T04:02:46.100Z,21.06
2022-08-28T04:05:14.357Z,21.15
2022-08-28T04:07:42.062Z,21.17
2022-08-28T04:10:12.162Z,21.09
2022-08-28T04:12:39.935Z,21.35
2022-08-28T04:15:09.016Z,21.38
2022-08-28T04:17:39.583Z,21.11
2022-08-28T04:20:11.201Z,21.08
2022-08-28T04:22:39.558Z,21.07
2022-08-28T04:25:08.896Z,20.96
2022-08-28T04:27:37.930Z,21.10
2022-08-28T04:30:07.032Z,21.11
2022-08-28T04:32:38.346Z,21.17
2022-08-28T04:35:09.042Z,21.26
2022-08-28T04:37:37.268Z,21.17
2022-08-28T04:40:05.715Z,21.23
2022-08-28T04:42:33.540Z,21.06
2022-08-28T04:45:02.768Z,21.03
2022-08-28T04:47:30.976Z,20.83
2022-08-28T04:49:58.702Z,20.77
2022-08-28T04:52:26.446Z,20.67
2022-08-28T04:54:54.051Z,20.63
2022-08-28T04:57:21.788Z,20.67
2022-08-28T04:59:49.454Z,20.73
2022-08-28T05:02:18.538Z,20.91
2022-08-28T05:04:46.880Z,21.14
2022-08-28T05:07:14.606Z,21.12
2022-08-28T05:09:43.412Z,21.10
2022-08-28T05:12:17.034Z,21.26
2022-08-28T05:14:45.614Z,21.20
2022-08-28T05:17:15.095Z,21.17
2022-08-28T05:19:44.164Z,21.02
2022-08-28T05:22:12.047Z,20.94
2022-08-28T05:24:40.388Z,20.82
2022-08-28T05:27:08.686Z,20.72
2022-08-28T05:29:36.531Z,20.82
2022-08-28T05:32:05.549Z,21.02
2022-08-28T05:34:33.211Z,21.06
2022-08-28T05:37:02.258Z,21.14
2022-08-28T05:39:30.056Z,21.10
2022-08-28T05:41:57.692Z,21.07
2022-08-28T05:44:25.360Z,20.87
2022-08-28T05:46:53.077Z,20.74
2022-08-28T05:49:20.938Z,20.66
2022-08-28T05:51:49.970Z,20.88
2022-08-28T05:54:19.296Z,21.11
2022-08-28T05:56:47.297Z,20.94
2022-08-28T05:59:16.101Z,20.93
2022-08-28T06:01:46.491Z,20.83
2022-08-28T06:04:17.719Z,20.96
2022-08-28T06:06:46.766Z,20.82
2022-08-28T06:09:16.437Z,20.66
2022-08-28T06:11:46.445Z,20.69
2022-08-28T06:14:16.605Z,20.62
2022-08-28T06:16:48.321Z,20.60
2022-08-28T06:19:17.455Z,20.81
2022-08-28T06:21:46.860Z,20.68
2022-08-28T06:24:15.135Z,20.82
2022-08-28T06:26:42.834Z,20.78
2022-08-28T06:29:13.563Z,20.87
2022-08-28T06:31:41.300Z,21.08
2022-08-28T06:34:09.939Z,21.20
2022-08-28T06:36:40.294Z,21.21
2022-08-28T06:39:09.530Z,21.19
2022-08-28T06:41:40.987Z,20.97
2022-08-28T06:44:08.856Z,20.94
2022-08-28T06:46:38.059Z,21.09
2022-08-28T06:49:08.022Z,21.07
2022-08-28T06:51:36.631Z,21.13
2022-08-28T06:54:05.083Z,21.19
2022-08-28T06:56:33.649Z,21.01
2022-08-28T06:59:01.800Z,20.78
2022-08-28T07:01:32.974Z,20.62
2022-08-28T07:04:04.028Z,20.64
2022-08-28T07:06:34.120Z,20.63
2022-08-28T07:09:01.934Z,20.76
2022-08-28T07:11:31.388Z,20.74
2022-08-28T07:14:00.681Z,20.77
2022-08-28T07:16:30.608Z,20.95
2022-08-28T07:18:59.469Z,21.01
2022-08-28T07:21:28.527Z,20.92
2022-08-28T07:23:56.388Z,20.83
2022-08-28T07:26:26.133Z,20.83
2022-08-28T07:29:09.324Z,20.96
2022-08-28T07:31:40.814Z,21.01
2022-08-28T07:34:09.498Z,20.92
2022-08-28T07:36:39.338Z,20.83
2022-08-28T07:39:08.386Z,20.79
2022-08-28T07:41:39.328Z,20.79
2022-08-28T07:44:28.327Z,20.79
2022-08-28T07:46:57.110Z,20.76
2022-08-28T07:49:25.883Z,20.73
2022-08-28T07:51:54.985Z,20.71
2022-08-28T07:54:22.929Z,20.82
2022-08-28T07:56:51.103Z,20.77
2022-08-28T07:59:19.292Z,20.74
2022-08-28T08:01:50.653Z,20.76
2022-08-28T08:04:20.916Z,20.79
2022-08-28T08:06:48.947Z,20.73
2022-08-28T08:09:19.457Z,20.68
2022-08-28T08:11:48.151Z,20.73
2022-08-28T08:14:17.706Z,20.80
2022-08-28T08:16:48.403Z,20.63
2022-08-28T08:19:18.888Z,20.60
2022-08-28T08:21:53.136Z,20.69
2022-08-28T08:24:26.566Z,20.49
2022-08-28T08:26:59.675Z,20.51
2022-08-28T08:29:28.692Z,20.49
2022-08-28T08:31:58.036Z,20.54
2022-08-28T08:34:26.484Z,20.90
2022-08-28T08:36:54.298Z,20.80
2022-08-28T08:39:22.030Z,20.72
2022-08-28T08:41:54.710Z,20.78
2022-08-28T08:44:28.529Z,20.93
2022-08-28T08:47:14.069Z,20.74
2022-08-28T08:49:48.910Z,20.67
2022-08-28T08:52:35.951Z,20.78
2022-08-28T08:55:15.110Z,20.89
2022-08-28T08:57:49.173Z,20.97
2022-08-28T09:00:18.895Z,20.90
2022-08-28T09:02:54.276Z,21.05
2022-08-28T09:05:28.583Z,20.97
2022-08-28T09:07:57.952Z,20.72
2022-08-28T09:10:35.189Z,20.71
2022-08-28T09:13:13.163Z,20.68
2022-08-28T09:15:48.678Z,20.64
2022-08-28T09:18:22.255Z,20.84
2022-08-28T09:20:51.101Z,20.83
2022-08-28T09:23:18.830Z,20.88
2022-08-28T09:25:53.875Z,21.06
2022-08-28T09:28:26.542Z,20.87
2022-08-28T09:31:06.214Z,21.00
2022-08-28T09:33:42.123Z,21.03
2022-08-28T09:36:37.625Z,20.97
2022-08-28T09:39:12.959Z,20.97
2022-08-28T09:42:04.518Z,20.87
2022-08-28T09:44:34.001Z,20.85
2022-08-28T09:47:02.365Z,20.82
2022-08-28T09:49:31.436Z,20.96
2022-08-28T09:52:01.627Z,21.16
2022-08-28T09:54:33.853Z,20.99
2022-08-28T09:57:03.422Z,20.82
2022-08-28T09:59:32.987Z,20.89
2022-08-28T10:02:22.319Z,20.85
2022-08-28T10:05:01.259Z,21.02
2022-08-28T10:07:38.442Z,20.80
2022-08-28T10:10:21.336Z,20.82
2022-08-28T10:13:00.323Z,20.89
2022-08-28T10:15:34.594Z,20.73
2022-08-28T10:18:19.981Z,20.86
2022-08-28T10:20:58.614Z,21.02
2022-08-28T10:23:33.958Z,21.16
2022-08-28T10:26:17.505Z,21.06
2022-08-28T10:28:56.102Z,20.95
2022-08-28T10:31:36.212Z,20.88
2022-08-28T10:34:27.452Z,20.83
2022-08-28T10:37:03.670Z,20.79
2022-08-28T10:39:44.955Z,20.85
2022-08-28T10:42:13.503Z,20.87
2022-08-28T10:44:50.417Z,20.92
2022-08-28T10:47:22.818Z,20.98
2022-08-28T10:50:01.738Z,20.88
2022-08-28T10:52:34.289Z,20.91
2022-08-28T10:55:09.253Z,21.00
2022-08-28T10:57:42.624Z,21.14
2022-08-28T11:00:13.303Z,21.11
2022-08-28T11:02:48.949Z,21.09
2022-08-28T11:05:21.795Z,21.05
2022-08-28T11:07:55.297Z,21.05
2022-08-28T11:10:40.062Z,21.08
2022-08-28T11:13:10.197Z,21.17
2022-08-28T11:15:48.095Z,21.18
2022-08-28T11:18:41.463Z,21.25
2022-08-28T11:21:16.840Z,21.26
2022-08-28T11:23:50.007Z,21.25
2022-08-28T11:26:30.748Z,21.06
2022-08-28T11:29:00.334Z,21.16
2022-08-28T11:31:32.276Z,21.09
2022-08-28T11:34:02.693Z,21.10
2022-08-28T11:37:02.842Z,21.07
2022-08-28T11:39:30.837Z,21.11
2022-08-28T11:42:32.214Z,21.41
2022-08-28T11:45:00.612Z,21.39
2022-08-28T11:47:46.554Z,21.27
2022-08-28T11:50:21.635Z,21.28
2022-08-28T11:53:17.926Z,21.50
2022-08-28T11:56:08.732Z,21.36
2022-08-28T11:58:43.426Z,21.58
2022-08-28T12:01:14.203Z,21.70
2022-08-28T12:03:44.623Z,21.82
2022-08-28T12:06:14.369Z,21.80
2022-08-28T12:09:09.966Z,21.75
2022-08-28T12:12:11.278Z,21.56
2022-08-28T12:15:11.202Z,21.68
2022-08-28T12:17:51.966Z,21.78
2022-08-28T12:20:40.595Z,21.83
2022-08-28T12:23:51.166Z,21.80
2022-08-28T12:26:27.630Z,21.81
2022-08-28T12:28:58.014Z,21.73
2022-08-28T12:32:14.448Z,21.67
2022-08-28T12:34:46.930Z,21.82
2022-08-28T12:37:39.603Z,21.82
2022-08-28T12:40:22.034Z,21.95
2022-08-28T12:42:55.359Z,21.91
2022-08-28T12:45:27.699Z,21.78
2022-08-28T12:48:00.018Z,21.80
2022-08-28T12:50:32.174Z,21.75
2022-08-28T12:53:02.518Z,21.76
2022-08-28T12:55:31.216Z,21.84
2022-08-28T12:58:00.713Z,21.94
2022-08-28T13:00:34.840Z,21.94
2022-08-28T13:03:03.887Z,21.98
2022-08-28T13:05:34.401Z,22.14
2022-08-28T13:08:08.554Z,22.19
2022-08-28T13:10:39.359Z,22.20
2022-08-28T13:13:12.335Z,22.36
2022-08-28T13:15:57.919Z,22.18
2022-08-28T13:18:42.846Z,22.30
2022-08-28T13:21:15.861Z,22.06
2022-08-28T13:23:43.588Z,22.15
2022-08-28T13:26:12.598Z,22.12
2022-08-28T13:28:43.782Z,22.07
2022-08-28T13:31:23.959Z,22.13
2022-08-28T13:34:07.207Z,22.16
2022-08-28T13:36:45.464Z,22.22
2022-08-28T13:39:15.002Z,22.26
2022-08-28T13:41:45.108Z,22.19
2022-08-28T13:44:30.539Z,22.19
2022-08-28T13:46:59.669Z,22.21
2022-08-28T13:49:29.848Z,22.12
2022-08-28T13:51:59.213Z,22.00
2022-08-28T13:54:27.740Z,22.02
2022-08-28T13:56:58.783Z,22.11
2022-08-28T13:59:28.777Z,22.35
2022-08-28T14:02:16.703Z,22.41
2022-08-28T14:04:44.814Z,22.61
2022-08-28T14:07:15.193Z,22.73
2022-08-28T14:09:43.144Z,22.60
2022-08-28T14:12:12.043Z,22.62
2022-08-28T14:14:41.373Z,22.69
2022-08-28T14:17:09.993Z,22.79
2022-08-28T14:19:38.171Z,23.01
2022-08-28T14:22:06.096Z,23.01
2022-08-28T14:24:33.835Z,22.80
2022-08-28T14:27:02.564Z,22.87
2022-08-28T14:29:31.472Z,23.25
2022-08-28T14:32:01.827Z,23.46
2022-08-28T14:34:29.617Z,23.53
2022-08-28T14:36:57.477Z,23.42
2022-08-28T14:39:27.294Z,23.37
2022-08-28T14:41:55.881Z,23.13
2022-08-28T14:44:25.111Z,22.94
2022-08-28T14:46:56.077Z,22.83
2022-08-28T14:49:28.257Z,22.88
2022-08-28T14:51:57.049Z,22.96
2022-08-28T14:54:26.308Z,23.18
2022-08-28T14:56:55.132Z,23.16
2022-08-28T14:59:25.684Z,23.17
2022-08-28T15:01:55.294Z,23.19
2022-08-28T15:04:26.031Z,23.10
2022-08-28T15:06:59.159Z,22.99
2022-08-28T15:09:27.409Z,22.92
2022-08-28T15:11:55.404Z,22.89
2022-08-28T15:14:23.143Z,22.80
2022-08-28T15:16:50.937Z,22.71
2022-08-28T15:19:19.054Z,22.69
2022-08-28T15:21:49.492Z,22.65
2022-08-28T15:24:24.102Z,22.95
2022-08-28T15:26:52.117Z,22.92
2022-08-28T15:29:19.832Z,23.22
2022-08-28T15:31:49.995Z,23.33
2022-08-28T15:34:22.037Z,23.33
2022-08-28T15:36:54.702Z,23.29
2022-08-28T15:39:42.236Z,23.33
2022-08-28T15:42:11.392Z,23.49
2022-08-28T15:44:39.604Z,23.51
2022-08-28T15:47:07.815Z,23.53
2022-08-28T15:49:44.662Z,23.68
2022-08-28T15:52:16.781Z,23.79
2022-08-28T15:54:45.832Z,23.71
2022-08-28T15:57:13.543Z,23.72
2022-08-28T15:59:49.129Z,23.71
2022-08-28T16:02:18.971Z,23.92
2022-08-28T16:04:46.842Z,24.18
2022-08-28T16:07:14.606Z,24.17
2022-08-28T16:09:42.380Z,24.10
2022-08-28T16:12:11.532Z,24.09
2022-08-28T16:14:39.221Z,24.19
2022-08-28T16:17:10.690Z,24.20
2022-08-28T16:19:39.052Z,24.06
2022-08-28T16:22:06.908Z,23.88
2022-08-28T16:24:34.810Z,24.10
2022-08-28T16:27:02.727Z,24.15
2022-08-28T16:29:32.114Z,24.18
2022-08-28T16:31:59.832Z,24.09
2022-08-28T16:35:56.888Z,23.93
2022-08-28T16:37:19.569Z,23.88
2022-08-28T16:39:54.355Z,23.85
2022-08-28T16:42:22.118Z,23.88
2022-08-28T16:44:51.240Z,23.90
2022-08-28T16:47:18.954Z,23.89
2022-08-28T16:49:46.626Z,23.84
2022-08-28T16:52:14.307Z,23.85
2022-08-28T16:54:47.459Z,23.79
2022-08-28T16:57:16.684Z,23.71
2022-08-28T16:59:44.426Z,23.68
2022-08-28T17:02:13.603Z,23.64
2022-08-28T17:04:41.775Z,23.61
2022-08-28T17:07:09.550Z,23.57
2022-08-28T17:09:37.239Z,23.42
2022-08-28T17:12:05.105Z,23.36
2022-08-28T17:14:33.732Z,23.24
2022-08-28T17:17:01.654Z,23.21
2022-08-28T17:19:30.983Z,23.18
2022-08-28T17:22:16.119Z,23.09
2022-08-28T17:24:43.880Z,22.94
2022-08-28T17:27:14.417Z,22.93
2022-08-28T17:29:49.171Z,22.92
2022-08-28T17:32:16.874Z,22.89
2022-08-28T17:34:45.973Z,22.90
2022-08-28T17:37:13.727Z,22.86
2022-08-28T17:39:41.422Z,22.85
2022-08-28T17:42:11.183Z,22.83
2022-08-28T17:44:38.920Z,22.82
2022-08-28T17:47:06.945Z,22.84
2022-08-28T17:49:34.674Z,22.83
2022-08-28T17:52:04.203Z,22.82
2022-08-28T17:54:31.999Z,22.81
2022-08-28T17:57:00.078Z,22.80
2022-08-28T17:59:27.853Z,22.77
2022-08-28T18:01:55.820Z,22.75
2022-08-28T18:04:24.632Z,22.75
2022-08-28T18:06:54.079Z,22.71
2022-08-28T18:09:24.017Z,22.75
2022-08-28T18:11:52.184Z,22.73
2022-08-28T18:14:19.994Z,22.67
2022-08-28T18:16:48.273Z,22.71
2022-08-28T18:19:16.780Z,22.73
2022-08-28T18:24:25.383Z,22.72
2022-08-28T18:26:53.776Z,22.73
2022-08-28T18:29:20.253Z,22.69
2022-08-28T18:31:46.721Z,22.69
2022-08-28T18:34:13.601Z,22.68
2022-08-28T18:36:40.832Z,22.54
2022-08-28T18:39:07.624Z,22.61
2022-08-28T18:41:43.871Z,22.69
2022-08-28T18:51:53.054Z,22.81
2022-08-28T18:54:20.285Z,22.82
2022-08-28T18:56:49.106Z,22.80
2022-08-28T18:59:16.936Z,22.68
2022-08-28T19:01:43.367Z,22.68
2022-08-28T19:04:10.195Z,22.65
2022-08-28T19:06:36.641Z,22.66
2022-08-28T19:11:57.394Z,22.62
2022-08-28T19:14:23.706Z,22.64
2022-08-28T19:16:50.018Z,22.61
2022-08-28T19:19:16.358Z,22.51
2022-08-28T19:21:43.294Z,22.42
2022-08-28T19:24:09.631Z,22.38
2022-08-28T19:26:36.360Z,22.33
2022-08-28T19:29:04.429Z,22.29
2022-08-28T19:36:36.807Z,22.23
2022-08-28T19:39:04.802Z,22.21
2022-08-28T19:41:32.318Z,22.20
2022-08-28T19:43:59.156Z,22.16
2022-08-28T19:46:25.862Z,22.09
2022-08-28T19:48:53.194Z,22.04
2022-08-28T19:51:23.463Z,22.04
2022-08-28T20:00:28.583Z,21.96
2022-08-28T20:02:57.056Z,21.84
2022-08-28T20:05:24.442Z,21.84
2022-08-28T20:07:51.357Z,21.75
2022-08-28T20:10:19.049Z,21.66
2022-08-28T20:12:48.538Z,22.11
2022-08-28T20:15:16.699Z,22.16
2022-08-28T20:21:09.339Z,21.98
2022-08-28T20:23:35.664Z,21.85
2022-08-28T20:26:02.407Z,21.78
2022-08-28T20:28:30.921Z,21.71
2022-08-28T20:30:57.430Z,21.67
2022-08-28T20:33:23.812Z,21.61
2022-08-28T20:35:59.797Z,21.56
2022-08-28T20:43:29.592Z,21.61
2022-08-28T20:45:55.933Z,21.96
2022-08-28T20:48:22.317Z,22.15
2022-08-28T20:50:50.826Z,22.22
2022-08-28T20:53:36.813Z,22.17
2022-08-28T20:56:07.329Z,21.95
2022-08-28T20:58:34.864Z,21.78
2022-08-28T21:08:49.170Z,21.98
2022-08-28T21:11:15.983Z,21.87
2022-08-28T21:13:42.436Z,21.95
2022-08-28T21:16:09.064Z,21.75
2022-08-28T21:18:35.571Z,21.80
2022-08-28T21:21:03.747Z,21.66
2022-08-28T21:23:30.343Z,21.55
2022-08-28T21:25:57.889Z,21.74
2022-08-28T21:33:27.367Z,21.41
2022-08-28T21:35:53.650Z,21.40
2022-08-28T21:38:20.156Z,21.67
2022-08-28T21:40:46.583Z,21.65
2022-08-28T21:43:13.358Z,21.87
2022-08-28T21:45:39.715Z,21.73
2022-08-28T21:48:06.091Z,21.66
2022-08-28T21:50:35.104Z,21.63
2022-08-28T21:58:04.700Z,21.11
2022-08-28T22:00:31.054Z,20.99
2022-08-28T22:02:57.398Z,20.95
2022-08-28T22:05:23.952Z,21.04
2022-08-28T22:07:50.273Z,21.18
2022-08-28T22:10:17.065Z,21.23
2022-08-28T22:12:46.022Z,21.09
2022-08-28T22:15:15.095Z,20.94
2022-08-28T22:17:42.849Z,20.88
2022-08-28T22:20:11.195Z,20.87
2022-08-28T22:22:56.572Z,20.84
2022-08-28T22:25:24.480Z,20.81
2022-08-28T22:27:52.195Z,20.77
2022-08-28T22:30:21.594Z,20.74
2022-08-28T22:32:49.426Z,20.74
2022-08-28T22:35:17.230Z,20.80
2022-08-28T22:37:45.035Z,20.88
2022-08-28T22:40:13.880Z,20.97
2022-08-28T22:42:42.357Z,21.00
2022-08-28T22:45:11.094Z,21.13
2022-08-28T22:47:40.525Z,21.12
2022-08-28T22:50:09.258Z,21.10
2022-08-28T22:52:37.331Z,21.13
2022-08-28T22:55:06.673Z,21.26
2022-08-28T22:57:34.462Z,21.26
2022-08-28T23:00:04.002Z,21.26
2022-08-28T23:02:34.108Z,21.32
2022-08-28T23:05:03.340Z,21.44
2022-08-28T23:07:31.368Z,21.54
2022-08-28T23:09:59.008Z,21.45
2022-08-28T23:12:26.912Z,21.36
2022-08-28T23:14:54.637Z,21.27
2022-08-28T23:17:22.490Z,21.30
2022-08-28T23:24:53.317Z,21.25
2022-08-28T23:27:35.775Z,21.21
2022-08-28T23:30:05.124Z,21.14
2022-08-28T23:32:31.465Z,21.10
2022-08-28T23:35:01.882Z,21.12
2022-08-28T23:37:29.645Z,21.14
2022-08-28T23:40:00.857Z,21.09
2022-08-28T23:42:28.681Z,21.05
2022-08-28T23:44:56.946Z,20.91
2022-08-28T23:47:24.664Z,20.84
2022-08-28T23:49:52.369Z,20.79
2022-08-28T23:52:20.157Z,20.58
2022-08-28T23:54:49.869Z,20.41
2022-08-28T23:57:18.980Z,20.30
2022-08-28T23:59:47.308Z,20.37
